sensor_id;sensor_type;location;lat;lon;timestamp;P1;durP1;ratioP1;P2;durP2;ratioP2
39956;SDS011;48483;44.640;7.494;2022-10-16T00:01:36;40.08;;;33.17;;
39956;SDS011;48483;44.640;7.494;2022-10-16T00:04:04;38.88;;;32.92;;
39956;SDS011;48483;44.640;7.494;2022-10-16T00:06:32;41.85;;;33.33;;
39956;SDS011;48483;44.640;7.494;2022-10-16T00:08:58;39.05;;;32.67;;
39956;SDS011;48483;44.640;7.494;2022-10-16T00:11:26;40.75;;;32.13;;
39956;SDS011;48483;44.640;7.494;2022-10-16T00:13:55;39.17;;;31.73;;
39956;SDS011;48483;44.640;7.494;2022-10-16T00:16:23;36.30;;;32.10;;
39956;SDS011;48483;44.640;7.494;2022-10-16T00:18:51;43.22;;;32.28;;
39956;SDS011;48483;44.640;7.494;2022-10-16T00:21:18;40.00;;;34.65;;
39956;SDS011;48483;44.640;7.494;2022-10-16T00:24:06;38.17;;;33.17;;
39956;SDS011;48483;44.640;7.494;2022-10-16T00:26:35;44.63;;;36.38;;
39956;SDS011;48483;44.640;7.494;2022-10-16T00:29:02;41.55;;;34.70;;
39956;SDS011;48483;44.640;7.494;2022-10-16T00:31:29;41.45;;;36.33;;
39956;SDS011;48483;44.640;7.494;2022-10-16T00:33:56;41.92;;;34.38;;
39956;SDS011;48483;44.640;7.494;2022-10-16T00:36:24;40.58;;;33.35;;
39956;SDS011;48483;44.640;7.494;2022-10-16T00:38:51;37.45;;;32.08;;
39956;SDS011;48483;44.640;7.494;2022-10-16T00:41:22;37.75;;;32.00;;
39956;SDS011;48483;44.640;7.494;2022-10-16T00:43:50;35.75;;;31.27;;
39956;SDS011;48483;44.640;7.494;2022-10-16T00:46:21;38.45;;;32.85;;
39956;SDS011;48483;44.640;7.494;2022-10-16T00:48:50;40.25;;;33.15;;
39956;SDS011;48483;44.640;7.494;2022-10-16T00:51:22;36.67;;;32.00;;
39956;SDS011;48483;44.640;7.494;2022-10-16T00:53:52;42.60;;;32.65;;
39956;SDS011;48483;44.640;7.494;2022-10-16T00:56:18;40.40;;;32.25;;
39956;SDS011;48483;44.640;7.494;2022-10-16T00:58:47;42.25;;;31.63;;
39956;SDS011;48483;44.640;7.494;2022-10-16T01:01:13;36.63;;;30.85;;
39956;SDS011;48483;44.640;7.494;2022-10-16T01:03:40;37.08;;;31.85;;
39956;SDS011;48483;44.640;7.494;2022-10-16T01:08:57;44.30;;;34.22;;
39956;SDS011;48483;44.640;7.494;2022-10-16T01:11:33;41.00;;;31.55;;
39956;SDS011;48483;44.640;7.494;2022-10-16T01:14:08;40.95;;;32.20;;
39956;SDS011;48483;44.640;7.494;2022-10-16T01:16:41;36.10;;;29.80;;
39956;SDS011;48483;44.640;7.494;2022-10-16T01:19:14;41.05;;;32.08;;
39956;SDS011;48483;44.640;7.494;2022-10-16T01:21:46;39.88;;;32.33;;
39956;SDS011;48483;44.640;7.494;2022-10-16T01:24:17;41.45;;;31.52;;
39956;SDS011;48483;44.640;7.494;2022-10-16T01:27:12;42.92;;;31.98;;
39956;SDS011;48483;44.640;7.494;2022-10-16T01:29:42;36.17;;;31.00;;
39956;SDS011;48483;44.640;7.494;2022-10-16T01:32:16;37.88;;;33.42;;
39956;SDS011;48483;44.640;7.494;2022-10-16T01:34:48;38.38;;;31.25;;
39956;SDS011;48483;44.640;7.494;2022-10-16T01:37:20;41.75;;;32.85;;
39956;SDS011;48483;44.640;7.494;2022-10-16T01:39:55;43.38;;;34.00;;
39956;SDS011;48483;44.640;7.494;2022-10-16T01:42:28;38.42;;;31.90;;
39956;SDS011;48483;44.640;7.494;2022-10-16T01:45:00;38.70;;;32.17;;
39956;SDS011;48483;44.640;7.494;2022-10-16T01:47:28;38.72;;;30.83;;
39956;SDS011;48483;44.640;7.494;2022-10-16T01:49:57;39.13;;;33.25;;
39956;SDS011;48483;44.640;7.494;2022-10-16T01:52:25;39.60;;;32.28;;
39956;SDS011;48483;44.640;7.494;2022-10-16T01:54:55;41.15;;;33.83;;
39956;SDS011;48483;44.640;7.494;2022-10-16T01:57:24;42.85;;;35.88;;
39956;SDS011;48483;44.640;7.494;2022-10-16T01:59:54;41.53;;;35.25;;
39956;SDS011;48483;44.640;7.494;2022-10-16T02:02:23;39.50;;;32.75;;
39956;SDS011;48483;44.640;7.494;2022-10-16T02:04:55;42.45;;;34.15;;
39956;SDS011;48483;44.640;7.494;2022-10-16T02:07:26;40.45;;;35.22;;
39956;SDS011;48483;44.640;7.494;2022-10-16T02:09:53;38.75;;;33.25;;
39956;SDS011;48483;44.640;7.494;2022-10-16T02:12:22;37.78;;;31.45;;
39956;SDS011;48483;44.640;7.494;2022-10-16T02:14:54;40.47;;;33.85;;
39956;SDS011;48483;44.640;7.494;2022-10-16T02:17:21;40.53;;;33.05;;
39956;SDS011;48483;44.640;7.494;2022-10-16T02:19:48;40.50;;;33.85;;
39956;SDS011;48483;44.640;7.494;2022-10-16T02:22:18;39.47;;;33.05;;
39956;SDS011;48483;44.640;7.494;2022-10-16T02:24:50;41.63;;;33.90;;
39956;SDS011;48483;44.640;7.494;2022-10-16T02:27:22;44.05;;;35.10;;
39956;SDS011;48483;44.640;7.494;2022-10-16T02:29:55;44.35;;;34.55;;
39956;SDS011;48483;44.640;7.494;2022-10-16T02:32:26;40.15;;;33.10;;
39956;SDS011;48483;44.640;7.494;2022-10-16T02:34:56;44.47;;;36.53;;
39956;SDS011;48483;44.640;7.494;2022-10-16T02:37:25;54.95;;;37.22;;
39956;SDS011;48483;44.640;7.494;2022-10-16T02:39:53;43.30;;;37.03;;
39956;SDS011;48483;44.640;7.494;2022-10-16T02:42:20;44.10;;;35.92;;
39956;SDS011;48483;44.640;7.494;2022-10-16T02:44:54;49.00;;;37.55;;
39956;SDS011;48483;44.640;7.494;2022-10-16T02:47:21;47.78;;;37.50;;
39956;SDS011;48483;44.640;7.494;2022-10-16T02:49:47;43.53;;;36.53;;
39956;SDS011;48483;44.640;7.494;2022-10-16T02:52:14;44.10;;;36.55;;
39956;SDS011;48483;44.640;7.494;2022-10-16T02:54:41;44.85;;;35.38;;
39956;SDS011;48483;44.640;7.494;2022-10-16T02:57:07;44.53;;;37.35;;
39956;SDS011;48483;44.640;7.494;2022-10-16T02:59:34;44.95;;;38.45;;
39956;SDS011;48483;44.640;7.494;2022-10-16T03:02:02;49.30;;;39.45;;
39956;SDS011;48483;44.640;7.494;2022-10-16T03:04:29;46.50;;;38.53;;
39956;SDS011;48483;44.640;7.494;2022-10-16T03:06:55;45.40;;;38.92;;
39956;SDS011;48483;44.640;7.494;2022-10-16T03:09:22;45.58;;;36.97;;
39956;SDS011;48483;44.640;7.494;2022-10-16T03:11:49;48.58;;;38.25;;
39956;SDS011;48483;44.640;7.494;2022-10-16T03:14:16;47.53;;;37.78;;
39956;SDS011;48483;44.640;7.494;2022-10-16T03:16:42;44.70;;;38.45;;
39956;SDS011;48483;44.640;7.494;2022-10-16T03:19:10;39.70;;;34.65;;
39956;SDS011;48483;44.640;7.494;2022-10-16T03:21:37;45.35;;;37.28;;
39956;SDS011;48483;44.640;7.494;2022-10-16T03:24:04;47.97;;;37.90;;
39956;SDS011;48483;44.640;7.494;2022-10-16T03:26:31;53.30;;;37.47;;
39956;SDS011;48483;44.640;7.494;2022-10-16T03:28:58;45.47;;;37.47;;
39956;SDS011;48483;44.640;7.494;2022-10-16T03:31:24;44.08;;;35.63;;
39956;SDS011;48483;44.640;7.494;2022-10-16T03:33:51;41.95;;;36.05;;
39956;SDS011;48483;44.640;7.494;2022-10-16T03:36:19;46.72;;;38.22;;
39956;SDS011;48483;44.640;7.494;2022-10-16T03:38:46;45.28;;;37.80;;
39956;SDS011;48483;44.640;7.494;2022-10-16T03:41:12;37.05;;;32.45;;
39956;SDS011;48483;44.640;7.494;2022-10-16T03:43:39;42.72;;;34.13;;
39956;SDS011;48483;44.640;7.494;2022-10-16T03:46:06;44.88;;;32.53;;
39956;SDS011;48483;44.640;7.494;2022-10-16T03:48:33;39.58;;;31.67;;
39956;SDS011;48483;44.640;7.494;2022-10-16T03:50:59;39.38;;;32.88;;
39956;SDS011;48483;44.640;7.494;2022-10-16T03:53:27;40.67;;;31.27;;
39956;SDS011;48483;44.640;7.494;2022-10-16T03:55:54;36.80;;;30.25;;
39956;SDS011;48483;44.640;7.494;2022-10-16T03:58:21;36.53;;;29.05;;
39956;SDS011;48483;44.640;7.494;2022-10-16T04:00:48;37.83;;;28.35;;
39956;SDS011;48483;44.640;7.494;2022-10-16T04:03:14;33.08;;;27.42;;
39956;SDS011;48483;44.640;7.494;2022-10-16T04:05:41;41.67;;;31.15;;
39956;SDS011;48483;44.640;7.494;2022-10-16T04:08:08;33.65;;;27.95;;
39956;SDS011;48483;44.640;7.494;2022-10-16T04:10:36;34.15;;;28.63;;
39956;SDS011;48483;44.640;7.494;2022-10-16T04:13:03;36.72;;;29.10;;
39956;SDS011;48483;44.640;7.494;2022-10-16T04:15:29;33.17;;;26.83;;
39956;SDS011;48483;44.640;7.494;2022-10-16T04:17:56;36.63;;;30.05;;
39956;SDS011;48483;44.640;7.494;2022-10-16T04:20:23;37.45;;;29.45;;
39956;SDS011;48483;44.640;7.494;2022-10-16T04:22:49;40.80;;;29.52;;
39956;SDS011;48483;44.640;7.494;2022-10-16T04:25:16;34.60;;;28.40;;
39956;SDS011;48483;44.640;7.494;2022-10-16T04:27:44;38.88;;;27.45;;
39956;SDS011;48483;44.640;7.494;2022-10-16T04:30:11;33.20;;;27.48;;
39956;SDS011;48483;44.640;7.494;2022-10-16T04:32:37;35.55;;;28.73;;
39956;SDS011;48483;44.640;7.494;2022-10-16T04:35:04;37.03;;;29.77;;
39956;SDS011;48483;44.640;7.494;2022-10-16T04:37:31;37.10;;;30.60;;
39956;SDS011;48483;44.640;7.494;2022-10-16T04:39:58;39.53;;;31.05;;
39956;SDS011;48483;44.640;7.494;2022-10-16T04:42:25;35.53;;;29.60;;
39956;SDS011;48483;44.640;7.494;2022-10-16T04:44:53;35.42;;;29.85;;
39956;SDS011;48483;44.640;7.494;2022-10-16T04:47:20;35.50;;;29.30;;
39956;SDS011;48483;44.640;7.494;2022-10-16T04:49:47;37.97;;;30.45;;
39956;SDS011;48483;44.640;7.494;2022-10-16T04:52:13;36.13;;;29.40;;
39956;SDS011;48483;44.640;7.494;2022-10-16T04:54:40;35.67;;;29.05;;
39956;SDS011;48483;44.640;7.494;2022-10-16T04:57:07;36.80;;;28.83;;
39956;SDS011;48483;44.640;7.494;2022-10-16T04:59:34;35.72;;;29.13;;
39956;SDS011;48483;44.640;7.494;2022-10-16T05:02:02;34.28;;;28.52;;
39956;SDS011;48483;44.640;7.494;2022-10-16T05:04:29;36.55;;;29.55;;
39956;SDS011;48483;44.640;7.494;2022-10-16T05:06:55;37.03;;;29.25;;
39956;SDS011;48483;44.640;7.494;2022-10-16T05:09:22;35.13;;;27.73;;
39956;SDS011;48483;44.640;7.494;2022-10-16T05:11:49;36.10;;;28.77;;
39956;SDS011;48483;44.640;7.494;2022-10-16T05:14:15;34.67;;;27.30;;
39956;SDS011;48483;44.640;7.494;2022-10-16T05:16:42;38.63;;;30.77;;
39956;SDS011;48483;44.640;7.494;2022-10-16T05:19:10;34.30;;;28.95;;
39956;SDS011;48483;44.640;7.494;2022-10-16T05:21:37;33.40;;;28.08;;
39956;SDS011;48483;44.640;7.494;2022-10-16T05:24:04;35.55;;;30.30;;
39956;SDS011;48483;44.640;7.494;2022-10-16T05:26:30;37.28;;;29.25;;
39956;SDS011;48483;44.640;7.494;2022-10-16T05:28:57;34.72;;;29.38;;
39956;SDS011;48483;44.640;7.494;2022-10-16T05:31:24;38.28;;;30.10;;
39956;SDS011;48483;44.640;7.494;2022-10-16T05:33:50;36.97;;;31.20;;
39956;SDS011;48483;44.640;7.494;2022-10-16T05:36:18;38.42;;;30.73;;
39956;SDS011;48483;44.640;7.494;2022-10-16T05:38:45;41.45;;;30.80;;
39956;SDS011;48483;44.640;7.494;2022-10-16T05:41:12;40.08;;;32.78;;
39956;SDS011;48483;44.640;7.494;2022-10-16T05:43:38;37.13;;;32.20;;
39956;SDS011;48483;44.640;7.494;2022-10-16T05:46:05;40.15;;;32.92;;
39956;SDS011;48483;44.640;7.494;2022-10-16T05:48:32;41.53;;;34.55;;
39956;SDS011;48483;44.640;7.494;2022-10-16T05:50:59;43.28;;;32.92;;
39956;SDS011;48483;44.640;7.494;2022-10-16T05:53:29;44.60;;;33.35;;
39956;SDS011;48483;44.640;7.494;2022-10-16T05:55:58;40.67;;;34.22;;
39956;SDS011;48483;44.640;7.494;2022-10-16T05:58:25;40.13;;;33.30;;
39956;SDS011;48483;44.640;7.494;2022-10-16T06:00:56;42.97;;;34.05;;
39956;SDS011;48483;44.640;7.494;2022-10-16T06:03:23;40.67;;;34.53;;
39956;SDS011;48483;44.640;7.494;2022-10-16T06:05:50;46.97;;;35.92;;
39956;SDS011;48483;44.640;7.494;2022-10-16T06:08:18;47.88;;;35.38;;
39956;SDS011;48483;44.640;7.494;2022-10-16T06:10:47;41.67;;;33.88;;
39956;SDS011;48483;44.640;7.494;2022-10-16T06:13:15;45.13;;;37.43;;
39956;SDS011;48483;44.640;7.494;2022-10-16T06:15:42;44.35;;;37.47;;
39956;SDS011;48483;44.640;7.494;2022-10-16T06:18:09;47.83;;;39.60;;
39956;SDS011;48483;44.640;7.494;2022-10-16T06:20:36;52.05;;;40.38;;
39956;SDS011;48483;44.640;7.494;2022-10-16T06:23:03;48.47;;;39.40;;
39956;SDS011;48483;44.640;7.494;2022-10-16T06:25:30;50.05;;;41.17;;
39956;SDS011;48483;44.640;7.494;2022-10-16T06:27:58;48.72;;;40.42;;
39956;SDS011;48483;44.640;7.494;2022-10-16T06:30:25;57.08;;;42.20;;
39956;SDS011;48483;44.640;7.494;2022-10-16T06:32:52;49.17;;;40.45;;
39956;SDS011;48483;44.640;7.494;2022-10-16T06:35:19;50.33;;;40.10;;
39956;SDS011;48483;44.640;7.494;2022-10-16T06:37:46;49.78;;;42.42;;
39956;SDS011;48483;44.640;7.494;2022-10-16T06:40:12;48.05;;;39.25;;
39956;SDS011;48483;44.640;7.494;2022-10-16T06:42:40;54.17;;;39.92;;
39956;SDS011;48483;44.640;7.494;2022-10-16T06:45:09;48.65;;;38.47;;
39956;SDS011;48483;44.640;7.494;2022-10-16T06:47:36;52.35;;;40.67;;
39956;SDS011;48483;44.640;7.494;2022-10-16T06:50:03;50.88;;;40.95;;
39956;SDS011;48483;44.640;7.494;2022-10-16T06:52:32;49.35;;;38.85;;
39956;SDS011;48483;44.640;7.494;2022-10-16T06:55:00;48.88;;;39.38;;
39956;SDS011;48483;44.640;7.494;2022-10-16T06:57:26;53.25;;;40.60;;
39956;SDS011;48483;44.640;7.494;2022-10-16T06:59:53;47.83;;;40.33;;
39956;SDS011;48483;44.640;7.494;2022-10-16T07:02:21;48.13;;;41.28;;
39956;SDS011;48483;44.640;7.494;2022-10-16T07:04:48;49.75;;;40.72;;
39956;SDS011;48483;44.640;7.494;2022-10-16T07:07:14;51.83;;;40.40;;
39956;SDS011;48483;44.640;7.494;2022-10-16T07:09:41;46.38;;;38.42;;
39956;SDS011;48483;44.640;7.494;2022-10-16T07:12:08;50.58;;;40.13;;
39956;SDS011;48483;44.640;7.494;2022-10-16T07:14:35;48.58;;;38.08;;
39956;SDS011;48483;44.640;7.494;2022-10-16T07:17:01;50.58;;;40.38;;
39956;SDS011;48483;44.640;7.494;2022-10-16T07:19:29;53.40;;;40.50;;
39956;SDS011;48483;44.640;7.494;2022-10-16T07:21:56;51.65;;;40.97;;
39956;SDS011;48483;44.640;7.494;2022-10-16T07:24:23;50.63;;;40.70;;
39956;SDS011;48483;44.640;7.494;2022-10-16T07:26:50;46.97;;;39.20;;
39956;SDS011;48483;44.640;7.494;2022-10-16T07:29:18;46.60;;;39.47;;
39956;SDS011;48483;44.640;7.494;2022-10-16T07:31:46;45.65;;;37.33;;
39956;SDS011;48483;44.640;7.494;2022-10-16T07:34:14;46.85;;;38.75;;
39956;SDS011;48483;44.640;7.494;2022-10-16T07:36:46;47.67;;;38.08;;
39956;SDS011;48483;44.640;7.494;2022-10-16T07:41:39;42.90;;;36.03;;
39956;SDS011;48483;44.640;7.494;2022-10-16T07:44:06;48.20;;;38.40;;
39956;SDS011;48483;44.640;7.494;2022-10-16T07:46:34;41.40;;;34.22;;
39956;SDS011;48483;44.640;7.494;2022-10-16T07:49:01;39.13;;;32.85;;
39956;SDS011;48483;44.640;7.494;2022-10-16T07:51:28;36.60;;;32.47;;
39956;SDS011;48483;44.640;7.494;2022-10-16T07:53:57;40.67;;;32.63;;
39956;SDS011;48483;44.640;7.494;2022-10-16T07:56:23;41.50;;;33.75;;
39956;SDS011;48483;44.640;7.494;2022-10-16T07:58:50;39.45;;;31.05;;
39956;SDS011;48483;44.640;7.494;2022-10-16T08:01:18;39.30;;;33.20;;
39956;SDS011;48483;44.640;7.494;2022-10-16T08:03:46;42.50;;;35.70;;
39956;SDS011;48483;44.640;7.494;2022-10-16T08:06:13;40.83;;;32.33;;
39956;SDS011;48483;44.640;7.494;2022-10-16T08:08:40;43.20;;;34.53;;
39956;SDS011;48483;44.640;7.494;2022-10-16T08:11:08;41.38;;;33.75;;
39956;SDS011;48483;44.640;7.494;2022-10-16T08:13:35;41.08;;;34.72;;
39956;SDS011;48483;44.640;7.494;2022-10-16T08:16:03;41.83;;;35.55;;
39956;SDS011;48483;44.640;7.494;2022-10-16T08:18:33;41.10;;;35.03;;
39956;SDS011;48483;44.640;7.494;2022-10-16T08:21:01;44.13;;;35.80;;
39956;SDS011;48483;44.640;7.494;2022-10-16T08:23:29;43.28;;;36.60;;
39956;SDS011;48483;44.640;7.494;2022-10-16T08:25:56;46.38;;;37.95;;
39956;SDS011;48483;44.640;7.494;2022-10-16T08:28:28;47.72;;;36.13;;
39956;SDS011;48483;44.640;7.494;2022-10-16T08:30:55;45.22;;;36.17;;
39956;SDS011;48483;44.640;7.494;2022-10-16T08:33:25;44.70;;;36.88;;
39956;SDS011;48483;44.640;7.494;2022-10-16T08:35:51;45.17;;;34.97;;
39956;SDS011;48483;44.640;7.494;2022-10-16T08:38:20;42.33;;;33.85;;
39956;SDS011;48483;44.640;7.494;2022-10-16T08:40:46;46.95;;;35.22;;
39956;SDS011;48483;44.640;7.494;2022-10-16T08:43:20;44.35;;;34.78;;
39956;SDS011;48483;44.640;7.494;2022-10-16T08:46:05;43.10;;;33.67;;
39956;SDS011;48483;44.640;7.494;2022-10-16T08:48:44;43.13;;;35.38;;
39956;SDS011;48483;44.640;7.494;2022-10-16T08:51:16;40.53;;;33.10;;
39956;SDS011;48483;44.640;7.494;2022-10-16T08:53:48;39.90;;;34.17;;
39956;SDS011;48483;44.640;7.494;2022-10-16T08:56:18;41.05;;;33.30;;
39956;SDS011;48483;44.640;7.494;2022-10-16T08:58:47;42.42;;;33.05;;
39956;SDS011;48483;44.640;7.494;2022-10-16T09:01:15;36.50;;;31.40;;
39956;SDS011;48483;44.640;7.494;2022-10-16T09:03:58;43.43;;;34.60;;
39956;SDS011;48483;44.640;7.494;2022-10-16T09:06:43;41.42;;;31.75;;
39956;SDS011;48483;44.640;7.494;2022-10-16T09:09:20;39.33;;;32.42;;
39956;SDS011;48483;44.640;7.494;2022-10-16T09:12:08;41.38;;;32.55;;
39956;SDS011;48483;44.640;7.494;2022-10-16T09:14:50;44.83;;;34.20;;
39956;SDS011;48483;44.640;7.494;2022-10-16T09:17:27;40.42;;;32.92;;
39956;SDS011;48483;44.640;7.494;2022-10-16T09:20:09;39.92;;;33.67;;
39956;SDS011;48483;44.640;7.494;2022-10-16T09:22:45;39.10;;;34.65;;
39956;SDS011;48483;44.640;7.494;2022-10-16T09:25:13;39.38;;;32.50;;
39956;SDS011;48483;44.640;7.494;2022-10-16T09:27:41;40.90;;;34.35;;
39956;SDS011;48483;44.640;7.494;2022-10-16T09:30:13;40.17;;;33.13;;
39956;SDS011;48483;44.640;7.494;2022-10-16T09:32:42;39.67;;;35.38;;
39956;SDS011;48483;44.640;7.494;2022-10-16T09:35:13;44.25;;;34.53;;
39956;SDS011;48483;44.640;7.494;2022-10-16T09:37:42;39.17;;;34.45;;
39956;SDS011;48483;44.640;7.494;2022-10-16T09:40:12;44.40;;;33.08;;
39956;SDS011;48483;44.640;7.494;2022-10-16T09:42:39;41.83;;;35.50;;
39956;SDS011;48483;44.640;7.494;2022-10-16T09:45:20;43.75;;;36.38;;
39956;SDS011;48483;44.640;7.494;2022-10-16T09:47:48;44.58;;;35.53;;
39956;SDS011;48483;44.640;7.494;2022-10-16T09:50:22;43.92;;;35.97;;
39956;SDS011;48483;44.640;7.494;2022-10-16T09:52:50;44.05;;;37.60;;
39956;SDS011;48483;44.640;7.494;2022-10-16T09:55:28;45.03;;;38.10;;
39956;SDS011;48483;44.640;7.494;2022-10-16T09:57:54;39.55;;;34.38;;
39956;SDS011;48483;44.640;7.494;2022-10-16T10:00:23;47.40;;;35.60;;
39956;SDS011;48483;44.640;7.494;2022-10-16T10:02:51;43.03;;;33.72;;
39956;SDS011;48483;44.640;7.494;2022-10-16T10:05:20;40.33;;;33.40;;
39956;SDS011;48483;44.640;7.494;2022-10-16T10:07:53;42.03;;;35.00;;
39956;SDS011;48483;44.640;7.494;2022-10-16T10:10:22;38.88;;;33.58;;
39956;SDS011;48483;44.640;7.494;2022-10-16T10:12:51;40.30;;;34.70;;
39956;SDS011;48483;44.640;7.494;2022-10-16T10:15:18;38.50;;;33.45;;
39956;SDS011;48483;44.640;7.494;2022-10-16T10:17:52;41.60;;;35.42;;
39956;SDS011;48483;44.640;7.494;2022-10-16T10:20:24;45.65;;;35.08;;
39956;SDS011;48483;44.640;7.494;2022-10-16T10:22:52;37.53;;;33.13;;
39956;SDS011;48483;44.640;7.494;2022-10-16T10:25:24;40.30;;;32.85;;
39956;SDS011;48483;44.640;7.494;2022-10-16T10:28:06;38.70;;;31.17;;
39956;SDS011;48483;44.640;7.494;2022-10-16T10:30:54;40.50;;;34.28;;
39956;SDS011;48483;44.640;7.494;2022-10-16T10:33:33;37.65;;;33.40;;
39956;SDS011;48483;44.640;7.494;2022-10-16T10:36:11;40.42;;;34.90;;
39956;SDS011;48483;44.640;7.494;2022-10-16T10:38:46;38.70;;;32.75;;
39956;SDS011;48483;44.640;7.494;2022-10-16T10:41:23;38.60;;;34.38;;
39956;SDS011;48483;44.640;7.494;2022-10-16T10:44:07;43.67;;;34.20;;
39956;SDS011;48483;44.640;7.494;2022-10-16T10:46:44;39.95;;;33.67;;
39956;SDS011;48483;44.640;7.494;2022-10-16T10:49:19;39.40;;;35.20;;
39956;SDS011;48483;44.640;7.494;2022-10-16T10:52:00;36.92;;;30.50;;
39956;SDS011;48483;44.640;7.494;2022-10-16T10:54:38;40.95;;;33.85;;
39956;SDS011;48483;44.640;7.494;2022-10-16T10:57:14;38.33;;;32.85;;
39956;SDS011;48483;44.640;7.494;2022-10-16T11:00:03;37.97;;;31.98;;
39956;SDS011;48483;44.640;7.494;2022-10-16T11:02:42;37.25;;;31.52;;
39956;SDS011;48483;44.640;7.494;2022-10-16T11:05:27;35.53;;;31.60;;
39956;SDS011;48483;44.640;7.494;2022-10-16T11:08:07;39.53;;;33.28;;
39956;SDS011;48483;44.640;7.494;2022-10-16T11:10:42;38.10;;;31.30;;
39956;SDS011;48483;44.640;7.494;2022-10-16T11:13:16;32.88;;;29.13;;
39956;SDS011;48483;44.640;7.494;2022-10-16T11:15:48;36.05;;;30.63;;
39956;SDS011;48483;44.640;7.494;2022-10-16T11:18:19;35.20;;;30.75;;
39956;SDS011;48483;44.640;7.494;2022-10-16T11:20:52;38.10;;;30.10;;
39956;SDS011;48483;44.640;7.494;2022-10-16T11:23:22;35.65;;;31.85;;
39956;SDS011;48483;44.640;7.494;2022-10-16T11:25:53;36.38;;;29.00;;
39956;SDS011;48483;44.640;7.494;2022-10-16T11:28:23;37.97;;;30.85;;
39956;SDS011;48483;44.640;7.494;2022-10-16T11:30:57;32.47;;;28.77;;
39956;SDS011;48483;44.640;7.494;2022-10-16T11:33:29;38.92;;;31.42;;
39956;SDS011;48483;44.640;7.494;2022-10-16T11:36:05;34.20;;;29.55;;
39956;SDS011;48483;44.640;7.494;2022-10-16T11:38:38;36.58;;;30.80;;
39956;SDS011;48483;44.640;7.494;2022-10-16T11:41:12;35.08;;;30.67;;
39956;SDS011;48483;44.640;7.494;2022-10-16T11:43:46;33.42;;;28.60;;
39956;SDS011;48483;44.640;7.494;2022-10-16T11:46:20;31.60;;;28.23;;
39956;SDS011;48483;44.640;7.494;2022-10-16T11:48:50;32.53;;;27.98;;
39956;SDS011;48483;44.640;7.494;2022-10-16T11:51:24;39.13;;;32.65;;
39956;SDS011;48483;44.640;7.494;2022-10-16T11:53:58;35.80;;;29.25;;
39956;SDS011;48483;44.640;7.494;2022-10-16T11:56:28;38.42;;;32.38;;
39956;SDS011;48483;44.640;7.494;2022-10-16T11:58:58;38.75;;;33.45;;
39956;SDS011;48483;44.640;7.494;2022-10-16T12:01:30;38.30;;;31.23;;
39956;SDS011;48483;44.640;7.494;2022-10-16T12:04:02;36.10;;;32.05;;
39956;SDS011;48483;44.640;7.494;2022-10-16T12:06:40;36.08;;;32.28;;
39956;SDS011;48483;44.640;7.494;2022-10-16T12:09:10;42.90;;;32.75;;
39956;SDS011;48483;44.640;7.494;2022-10-16T12:11:43;41.80;;;33.22;;
39956;SDS011;48483;44.640;7.494;2022-10-16T12:14:21;34.38;;;30.67;;
39956;SDS011;48483;44.640;7.494;2022-10-16T12:17:02;37.13;;;32.10;;
39956;SDS011;48483;44.640;7.494;2022-10-16T12:19:56;35.40;;;31.55;;
39956;SDS011;48483;44.640;7.494;2022-10-16T12:22:26;40.80;;;34.08;;
39956;SDS011;48483;44.640;7.494;2022-10-16T12:24:56;34.88;;;31.15;;
39956;SDS011;48483;44.640;7.494;2022-10-16T12:27:24;36.70;;;32.78;;
39956;SDS011;48483;44.640;7.494;2022-10-16T12:29:55;36.83;;;32.28;;
39956;SDS011;48483;44.640;7.494;2022-10-16T12:32:25;37.03;;;32.30;;
39956;SDS011;48483;44.640;7.494;2022-10-16T12:34:55;37.35;;;32.88;;
39956;SDS011;48483;44.640;7.494;2022-10-16T12:37:23;36.08;;;32.30;;
39956;SDS011;48483;44.640;7.494;2022-10-16T12:39:54;38.47;;;33.92;;
39956;SDS011;48483;44.640;7.494;2022-10-16T12:42:23;37.27;;;33.13;;
39956;SDS011;48483;44.640;7.494;2022-10-16T12:44:59;38.75;;;33.47;;
39956;SDS011;48483;44.640;7.494;2022-10-16T12:47:35;39.55;;;34.05;;
39956;SDS011;48483;44.640;7.494;2022-10-16T12:52:53;39.72;;;32.45;;
39956;SDS011;48483;44.640;7.494;2022-10-16T12:55:21;40.17;;;33.78;;
39956;SDS011;48483;44.640;7.494;2022-10-16T12:57:56;40.78;;;35.80;;
39956;SDS011;48483;44.640;7.494;2022-10-16T13:00:54;38.88;;;34.38;;
39956;SDS011;48483;44.640;7.494;2022-10-16T13:03:30;38.08;;;33.95;;
39956;SDS011;48483;44.640;7.494;2022-10-16T13:06:14;36.30;;;30.30;;
39956;SDS011;48483;44.640;7.494;2022-10-16T13:08:57;39.40;;;33.58;;
39956;SDS011;48483;44.640;7.494;2022-10-16T13:11:38;39.08;;;33.67;;
39956;SDS011;48483;44.640;7.494;2022-10-16T13:14:21;38.47;;;34.10;;
39956;SDS011;48483;44.640;7.494;2022-10-16T13:17:04;39.72;;;32.38;;
39956;SDS011;48483;44.640;7.494;2022-10-16T13:19:39;39.80;;;32.42;;
39956;SDS011;48483;44.640;7.494;2022-10-16T13:22:13;38.95;;;34.53;;
39956;SDS011;48483;44.640;7.494;2022-10-16T13:24:50;37.60;;;33.55;;
39956;SDS011;48483;44.640;7.494;2022-10-16T13:27:27;37.40;;;33.33;;
39956;SDS011;48483;44.640;7.494;2022-10-16T13:30:01;40.08;;;33.63;;
39956;SDS011;48483;44.640;7.494;2022-10-16T13:32:39;41.65;;;35.17;;
39956;SDS011;48483;44.640;7.494;2022-10-16T13:35:19;39.75;;;35.45;;
39956;SDS011;48483;44.640;7.494;2022-10-16T13:37:47;40.35;;;34.90;;
39956;SDS011;48483;44.640;7.494;2022-10-16T13:40:18;38.47;;;33.78;;
39956;SDS011;48483;44.640;7.494;2022-10-16T13:42:47;42.97;;;34.88;;
39956;SDS011;48483;44.640;7.494;2022-10-16T13:45:17;38.83;;;33.83;;
39956;SDS011;48483;44.640;7.494;2022-10-16T13:47:46;40.00;;;33.40;;
39956;SDS011;48483;44.640;7.494;2022-10-16T13:50:14;41.33;;;33.50;;
39956;SDS011;48483;44.640;7.494;2022-10-16T13:52:42;39.45;;;34.63;;
39956;SDS011;48483;44.640;7.494;2022-10-16T13:55:12;40.10;;;34.88;;
39956;SDS011;48483;44.640;7.494;2022-10-16T13:57:40;42.00;;;35.20;;
39956;SDS011;48483;44.640;7.494;2022-10-16T14:00:19;43.90;;;39.20;;
39956;SDS011;48483;44.640;7.494;2022-10-16T14:02:49;49.45;;;40.35;;
39956;SDS011;48483;44.640;7.494;2022-10-16T14:05:19;42.63;;;36.40;;
39956;SDS011;48483;44.640;7.494;2022-10-16T14:07:47;38.63;;;34.45;;
39956;SDS011;48483;44.640;7.494;2022-10-16T14:10:20;39.42;;;32.38;;
39956;SDS011;48483;44.640;7.494;2022-10-16T14:13:00;39.75;;;34.20;;
39956;SDS011;48483;44.640;7.494;2022-10-16T14:15:30;38.30;;;34.20;;
39956;SDS011;48483;44.640;7.494;2022-10-16T14:17:58;42.95;;;33.53;;
39956;SDS011;48483;44.640;7.494;2022-10-16T14:20:26;38.45;;;31.77;;
39956;SDS011;48483;44.640;7.494;2022-10-16T14:23:01;34.42;;;30.52;;
39956;SDS011;48483;44.640;7.494;2022-10-16T14:25:30;38.08;;;30.23;;
39956;SDS011;48483;44.640;7.494;2022-10-16T14:28:02;39.25;;;30.63;;
39956;SDS011;48483;44.640;7.494;2022-10-16T14:30:31;35.90;;;29.50;;
39956;SDS011;48483;44.640;7.494;2022-10-16T14:33:00;38.55;;;30.85;;
39956;SDS011;48483;44.640;7.494;2022-10-16T14:35:29;33.78;;;30.10;;
39956;SDS011;48483;44.640;7.494;2022-10-16T14:37:58;34.80;;;30.85;;
39956;SDS011;48483;44.640;7.494;2022-10-16T14:40:27;32.80;;;29.30;;
39956;SDS011;48483;44.640;7.494;2022-10-16T14:42:55;35.92;;;28.83;;
39956;SDS011;48483;44.640;7.494;2022-10-16T14:45:23;36.85;;;28.50;;
39956;SDS011;48483;44.640;7.494;2022-10-16T14:47:55;34.53;;;29.80;;